sensor_id;sensor_type;location;lat;lon;timestamp;temperature;humidity
2967;DHT22;1493;51.496;7.210;2023-01-28T00:00:47;3.40;99.90
2967;DHT22;1493;51.496;7.210;2023-01-28T00:03:14;3.30;99.90
2967;DHT22;1493;51.496;7.210;2023-01-28T00:05:43;3.40;99.90
2967;DHT22;1493;51.496;7.210;2023-01-28T00:08:10;3.50;99.90
2967;DHT22;1493;51.496;7.210;2023-01-28T00:10:39;3.50;99.90
2967;DHT22;1493;51.496;7.210;2023-01-28T00:13:08;3.50;99.90
2967;DHT22;1493;51.496;7.210;2023-01-28T00:15:36;3.40;99.90
2967;DHT22;1493;51.496;7.210;2023-01-28T00:18:03;3.40;99.90
2967;DHT22;1493;51.496;7.210;2023-01-28T00:20:30;3.50;99.90
2967;DHT22;1493;51.496;7.210;2023-01-28T00:22:57;3.50;99.90
2967;DHT22;1493;51.496;7.210;2023-01-28T00:25:24;3.40;99.90
2967;DHT22;1493;51.496;7.210;2023-01-28T00:27:52;3.40;99.90
2967;DHT22;1493;51.496;7.210;2023-01-28T00:30:19;3.40;99.90
2967;DHT22;1493;51.496;7.210;2023-01-28T00:32:46;3.40;99.90
2967;DHT22;1493;51.496;7.210;2023-01-28T00:35:12;3.30;99.90
2967;DHT22;1493;51.496;7.210;2023-01-28T00:37:39;3.30;99.90
2967;DHT22;1493;51.496;7.210;2023-01-28T00:40:07;3.20;99.90
2967;DHT22;1493;51.496;7.210;2023-01-28T00:42:34;3.20;99.90
2967;DHT22;1493;51.496;7.210;2023-01-28T00:45:06;3.20;99.90
2967;DHT22;1493;51.496;7.210;2023-01-28T00:47:33;3.20;99.90
2967;DHT22;1493;51.496;7.210;2023-01-28T00:50:00;3.20;99.90
2967;DHT22;1493;51.496;7.210;2023-01-28T00:52:27;3.20;99.90
2967;DHT22;1493;51.496;7.210;2023-01-28T00:54:54;3.30;99.90
2967;DHT22;1493;51.496;7.210;2023-01-28T00:57:21;3.40;99.90
2967;DHT22;1493;51.496;7.210;2023-01-28T00:59:48;3.30;99.90
2967;DHT22;1493;51.496;7.210;2023-01-28T01:02:16;3.40;99.90
2967;DHT22;1493;51.496;7.210;2023-01-28T01:04:43;3.30;99.90
2967;DHT22;1493;51.496;7.210;2023-01-28T01:07:20;3.40;99.90
2967;DHT22;1493;51.496;7.210;2023-01-28T01:09:47;3.40;99.90
2967;DHT22;1493;51.496;7.210;2023-01-28T01:12:14;3.40;99.90
2967;DHT22;1493;51.496;7.210;2023-01-28T01:14:42;3.30;99.90
2967;DHT22;1493;51.496;7.210;2023-01-28T01:17:09;3.10;99.90
2967;DHT22;1493;51.496;7.210;2023-01-28T01:19:37;3.00;99.90
2967;DHT22;1493;51.496;7.210;2023-01-28T01:22:04;3.10;99.90
2967;DHT22;1493;51.496;7.210;2023-01-28T01:24:31;3.20;99.90
2967;DHT22;1493;51.496;7.210;2023-01-28T01:26:58;3.20;99.90
2967;DHT22;1493;51.496;7.210;2023-01-28T01:29:26;3.10;99.90
2967;DHT22;1493;51.496;7.210;2023-01-28T01:31:53;3.10;99.90
2967;DHT22;1493;51.496;7.210;2023-01-28T01:34:20;3.10;99.90
2967;DHT22;1493;51.496;7.210;2023-01-28T01:36:48;3.10;99.90
2967;DHT22;1493;51.496;7.210;2023-01-28T01:39:15;3.00;99.90
2967;DHT22;1493;51.496;7.210;2023-01-28T01:41:42;2.90;99.90
2967;DHT22;1493;51.496;7.210;2023-01-28T01:47:09;2.80;99.90
2967;DHT22;1493;51.496;7.210;2023-01-28T01:49:36;2.90;99.90
2967;DHT22;1493;51.496;7.210;2023-01-28T01:52:09;2.80;99.90
2967;DHT22;1493;51.496;7.210;2023-01-28T01:54:38;2.80;99.90
2967;DHT22;1493;51.496;7.210;2023-01-28T01:57:09;2.80;99.90
2967;DHT22;1493;51.496;7.210;2023-01-28T01:59:39;2.90;99.90
2967;DHT22;1493;51.496;7.210;2023-01-28T02:02:09;2.90;99.90
2967;DHT22;1493;51.496;7.210;2023-01-28T02:04:39;2.90;99.90
2967;DHT22;1493;51.496;7.210;2023-01-28T02:07:10;2.90;99.90
2967;DHT22;1493;51.496;7.210;2023-01-28T02:09:37;3.00;99.90
2967;DHT22;1493;51.496;7.210;2023-01-28T02:12:08;3.00;99.90
2967;DHT22;1493;51.496;7.210;2023-01-28T02:14:41;2.90;99.90
2967;DHT22;1493;51.496;7.210;2023-01-28T02:17:09;3.00;99.90
2967;DHT22;1493;51.496;7.210;2023-01-28T02:19:38;2.90;99.90
2967;DHT22;1493;51.496;7.210;2023-01-28T02:22:36;2.90;99.90
2967;DHT22;1493;51.496;7.210;2023-01-28T02:25:29;3.00;99.90
2967;DHT22;1493;51.496;7.210;2023-01-28T02:28:15;2.80;99.90
2967;DHT22;1493;51.496;7.210;2023-01-28T02:30:51;2.60;99.90
2967;DHT22;1493;51.496;7.210;2023-01-28T02:33:26;2.60;99.90
2967;DHT22;1493;51.496;7.210;2023-01-28T02:35:55;2.60;99.90
2967;DHT22;1493;51.496;7.210;2023-01-28T02:38:26;2.70;99.90
2967;DHT22;1493;51.496;7.210;2023-01-28T02:41:00;2.70;99.90
2967;DHT22;1493;51.496;7.210;2023-01-28T02:43:33;2.70;99.90
2967;DHT22;1493;51.496;7.210;2023-01-28T02:46:11;2.80;99.90
2967;DHT22;1493;51.496;7.210;2023-01-28T02:48:56;2.80;99.90
2967;DHT22;1493;51.496;7.210;2023-01-28T02:51:34;2.70;99.90
2967;DHT22;1493;51.496;7.210;2023-01-28T02:54:10;2.60;99.90
2967;DHT22;1493;51.496;7.210;2023-01-28T02:56:43;2.60;99.90
2967;DHT22;1493;51.496;7.210;2023-01-28T02:59:16;2.70;99.90
2967;DHT22;1493;51.496;7.210;2023-01-28T03:02:03;2.80;99.90
2967;DHT22;1493;51.496;7.210;2023-01-28T03:04:37;2.60;99.90
2967;DHT22;1493;51.496;7.210;2023-01-28T03:07:07;2.60;99.90
2967;DHT22;1493;51.496;7.210;2023-01-28T03:09:35;2.60;99.90
2967;DHT22;1493;51.496;7.210;2023-01-28T03:12:04;2.70;99.90
2967;DHT22;1493;51.496;7.210;2023-01-28T03:14:53;2.50;99.90
2967;DHT22;1493;51.496;7.210;2023-01-28T03:17:41;2.60;99.90
2967;DHT22;1493;51.496;7.210;2023-01-28T03:20:32;2.50;99.90
2967;DHT22;1493;51.496;7.210;2023-01-28T03:23:22;2.40;99.90
2967;DHT22;1493;51.496;7.210;2023-01-28T03:26:11;2.50;99.90
2967;DHT22;1493;51.496;7.210;2023-01-28T03:29:02;2.60;99.90
2967;DHT22;1493;51.496;7.210;2023-01-28T03:31:50;2.70;99.90
2967;DHT22;1493;51.496;7.210;2023-01-28T03:34:35;2.80;99.90
2967;DHT22;1493;51.496;7.210;2023-01-28T03:37:20;2.80;99.90
2967;DHT22;1493;51.496;7.210;2023-01-28T03:39:47;2.70;99.90
2967;DHT22;1493;51.496;7.210;2023-01-28T03:42:14;2.60;99.90
2967;DHT22;1493;51.496;7.210;2023-01-28T03:44:43;2.70;99.90
2967;DHT22;1493;51.496;7.210;2023-01-28T03:47:18;2.60;99.90
2967;DHT22;1493;51.496;7.210;2023-01-28T03:49:47;2.70;99.90
2967;DHT22;1493;51.496;7.210;2023-01-28T03:52:15;2.70;99.90
2967;DHT22;1493;51.496;7.210;2023-01-28T03:54:43;2.70;99.90
2967;DHT22;1493;51.496;7.210;2023-01-28T03:57:12;2.80;99.90
2967;DHT22;1493;51.496;7.210;2023-01-28T03:59:40;2.70;99.90
2967;DHT22;1493;51.496;7.210;2023-01-28T04:02:08;2.70;99.90
2967;DHT22;1493;51.496;7.210;2023-01-28T04:04:37;2.70;99.90
2967;DHT22;1493;51.496;7.210;2023-01-28T04:07:07;2.80;99.90
2967;DHT22;1493;51.496;7.210;2023-01-28T04:09:35;2.80;99.90
2967;DHT22;1493;51.496;7.210;2023-01-28T04:12:03;2.70;99.90
2967;DHT22;1493;51.496;7.210;2023-01-28T04:14:30;2.70;99.90
2967;DHT22;1493;51.496;7.210;2023-01-28T04:16:58;2.60;99.90
2967;DHT22;1493;51.496;7.210;2023-01-28T04:19:25;2.60;99.90
2967;DHT22;1493;51.496;7.210;2023-01-28T04:21:54;2.60;99.90
2967;DHT22;1493;51.496;7.210;2023-01-28T04:24:21;2.60;99.90
2967;DHT22;1493;51.496;7.210;2023-01-28T04:26:48;2.50;99.90
2967;DHT22;1493;51.496;7.210;2023-01-28T04:29:15;2.50;99.90
2967;DHT22;1493;51.496;7.210;2023-01-28T04:31:42;2.40;99.90
2967;DHT22;1493;51.496;7.210;2023-01-28T04:34:08;2.40;99.90
2967;DHT22;1493;51.496;7.210;2023-01-28T04:36:35;2.50;99.90
2967;DHT22;1493;51.496;7.210;2023-01-28T04:39:04;2.50;99.90
2967;DHT22;1493;51.496;7.210;2023-01-28T04:41:31;2.50;99.90
2967;DHT22;1493;51.496;7.210;2023-01-28T04:43:57;2.60;99.90
2967;DHT22;1493;51.496;7.210;2023-01-28T04:46:24;2.50;99.90
2967;DHT22;1493;51.496;7.210;2023-01-28T04:48:51;2.40;99.90
2967;DHT22;1493;51.496;7.210;2023-01-28T04:51:18;2.50;99.90
2967;DHT22;1493;51.496;7.210;2023-01-28T04:53:45;2.50;99.90
2967;DHT22;1493;51.496;7.210;2023-01-28T04:56:13;2.60;99.90
2967;DHT22;1493;51.496;7.210;2023-01-28T04:58:39;2.50;99.90
2967;DHT22;1493;51.496;7.210;2023-01-28T05:01:06;2.50;99.90
2967;DHT22;1493;51.496;7.210;2023-01-28T05:03:33;2.50;99.90
2967;DHT22;1493;51.496;7.210;2023-01-28T05:06:00;2.40;99.90
2967;DHT22;1493;51.496;7.210;2023-01-28T05:08:27;2.40;99.90
2967;DHT22;1493;51.496;7.210;2023-01-28T05:10:54;2.50;99.90
2967;DHT22;1493;51.496;7.210;2023-01-28T05:13:22;2.60;99.90
2967;DHT22;1493;51.496;7.210;2023-01-28T05:15:52;2.60;99.90
2967;DHT22;1493;51.496;7.210;2023-01-28T05:18:19;2.70;99.90
2967;DHT22;1493;51.496;7.210;2023-01-28T05:20:46;2.60;99.90
2967;DHT22;1493;51.496;7.210;2023-01-28T05:23:13;2.60;99.90
2967;DHT22;1493;51.496;7.210;2023-01-28T05:25:40;2.60;99.90
2967;DHT22;1493;51.496;7.210;2023-01-28T05:28:06;2.60;99.90
2967;DHT22;1493;51.496;7.210;2023-01-28T05:30:36;2.50;99.90
2967;DHT22;1493;51.496;7.210;2023-01-28T05:33:03;2.40;99.90
2967;DHT22;1493;51.496;7.210;2023-01-28T05:35:29;2.50;99.90
2967;DHT22;1493;51.496;7.210;2023-01-28T05:37:56;2.50;99.90
2967;DHT22;1493;51.496;7.210;2023-01-28T05:40:23;2.50;99.90
2967;DHT22;1493;51.496;7.210;2023-01-28T05:42:50;2.40;99.90
2967;DHT22;1493;51.496;7.210;2023-01-28T05:45:16;2.40;99.90
2967;DHT22;1493;51.496;7.210;2023-01-28T05:47:45;2.50;99.90
2967;DHT22;1493;51.496;7.210;2023-01-28T05:50:12;2.40;99.90
2967;DHT22;1493;51.496;7.210;2023-01-28T05:52:39;2.30;99.90
2967;DHT22;1493;51.496;7.210;2023-01-28T05:55:07;2.20;99.90
2967;DHT22;1493;51.496;7.210;2023-01-28T05:57:34;2.20;99.90
2967;DHT22;1493;51.496;7.210;2023-01-28T06:00:01;2.10;99.90
2967;DHT22;1493;51.496;7.210;2023-01-28T06:02:28;2.20;99.90
2967;DHT22;1493;51.496;7.210;2023-01-28T06:04:56;2.30;99.90
2967;DHT22;1493;51.496;7.210;2023-01-28T06:07:23;2.20;99.90
2967;DHT22;1493;51.496;7.210;2023-01-28T06:09:50;2.30;99.90
2967;DHT22;1493;51.496;7.210;2023-01-28T06:12:17;2.20;99.90
2967;DHT22;1493;51.496;7.210;2023-01-28T06:14:44;2.30;99.90
2967;DHT22;1493;51.496;7.210;2023-01-28T06:17:10;2.30;99.90
2967;DHT22;1493;51.496;7.210;2023-01-28T06:19:37;2.20;99.90
2967;DHT22;1493;51.496;7.210;2023-01-28T06:22:05;2.30;99.90
2967;DHT22;1493;51.496;7.210;2023-01-28T06:24:32;2.30;99.90
2967;DHT22;1493;51.496;7.210;2023-01-28T06:26:59;2.30;99.90
2967;DHT22;1493;51.496;7.210;2023-01-28T06:29:26;2.40;99.90
2967;DHT22;1493;51.496;7.210;2023-01-28T06:31:53;2.40;99.90
2967;DHT22;1493;51.496;7.210;2023-01-28T06:34:19;2.30;99.90
2967;DHT22;1493;51.496;7.210;2023-01-28T06:36:46;2.20;99.90
2967;DHT22;1493;51.496;7.210;2023-01-28T06:39:16;2.30;99.90
2967;DHT22;1493;51.496;7.210;2023-01-28T06:41:43;2.20;99.90
2967;DHT22;1493;51.496;7.210;2023-01-28T06:44:10;2.30;99.90
2967;DHT22;1493;51.496;7.210;2023-01-28T06:46:37;2.20;99.90
2967;DHT22;1493;51.496;7.210;2023-01-28T06:49:03;2.20;99.90
2967;DHT22;1493;51.496;7.210;2023-01-28T06:51:32;2.20;99.90
2967;DHT22;1493;51.496;7.210;2023-01-28T06:53:59;2.20;99.90
2967;DHT22;1493;51.496;7.210;2023-01-28T06:56:27;2.10;99.90
2967;DHT22;1493;51.496;7.210;2023-01-28T06:58:54;2.10;99.90
2967;DHT22;1493;51.496;7.210;2023-01-28T07:01:21;2.10;99.90
2967;DHT22;1493;51.496;7.210;2023-01-28T07:03:48;2.10;99.90
2967;DHT22;1493;51.496;7.210;2023-01-28T07:06:14;2.20;99.90
2967;DHT22;1493;51.496;7.210;2023-01-28T07:08:41;2.20;99.90
2967;DHT22;1493;51.496;7.210;2023-01-28T07:11:08;2.30;99.90
2967;DHT22;1493;51.496;7.210;2023-01-28T07:13:36;2.10;99.90
2967;DHT22;1493;51.496;7.210;2023-01-28T07:16:03;2.00;99.90
2967;DHT22;1493;51.496;7.210;2023-01-28T07:18:30;2.10;99.90
2967;DHT22;1493;51.496;7.210;2023-01-28T07:20:57;2.20;99.90
2967;DHT22;1493;51.496;7.210;2023-01-28T07:23:24;2.20;99.90
2967;DHT22;1493;51.496;7.210;2023-01-28T07:25:51;2.20;99.90
2967;DHT22;1493;51.496;7.210;2023-01-28T07:28:18;2.20;99.90
2967;DHT22;1493;51.496;7.210;2023-01-28T07:30:48;2.20;99.90
2967;DHT22;1493;51.496;7.210;2023-01-28T07:33:16;2.20;99.90
2967;DHT22;1493;51.496;7.210;2023-01-28T07:35:43;2.20;99.90
2967;DHT22;1493;51.496;7.210;2023-01-28T07:38:10;2.20;99.90
2967;DHT22;1493;51.496;7.210;2023-01-28T07:40:37;2.20;99.90
2967;DHT22;1493;51.496;7.210;2023-01-28T07:43:04;2.20;99.90
2967;DHT22;1493;51.496;7.210;2023-01-28T07:45:32;2.20;99.90
2967;DHT22;1493;51.496;7.210;2023-01-28T07:48:02;2.10;99.90
2967;DHT22;1493;51.496;7.210;2023-01-28T07:50:30;2.10;99.90
2967;DHT22;1493;51.496;7.210;2023-01-28T07:52:58;2.20;99.90
2967;DHT22;1493;51.496;7.210;2023-01-28T07:55:27;2.20;99.90
2967;DHT22;1493;51.496;7.210;2023-01-28T07:57:55;2.30;99.90
2967;DHT22;1493;51.496;7.210;2023-01-28T08:00:23;2.30;99.90
2967;DHT22;1493;51.496;7.210;2023-01-28T08:02:54;2.40;99.90
2967;DHT22;1493;51.496;7.210;2023-01-28T08:05:23;2.50;99.90
2967;DHT22;1493;51.496;7.210;2023-01-28T08:07:51;2.40;99.90
2967;DHT22;1493;51.496;7.210;2023-01-28T08:10:18;2.50;99.90
2967;DHT22;1493;51.496;7.210;2023-01-28T08:12:52;2.50;99.90
2967;DHT22;1493;51.496;7.210;2023-01-28T08:15:20;2.60;99.90
2967;DHT22;1493;51.496;7.210;2023-01-28T08:17:47;2.60;99.90
2967;DHT22;1493;51.496;7.210;2023-01-28T08:20:15;2.50;99.90
2967;DHT22;1493;51.496;7.210;2023-01-28T08:22:43;2.50;99.90
2967;DHT22;1493;51.496;7.210;2023-01-28T08:25:10;2.40;99.90
2967;DHT22;1493;51.496;7.210;2023-01-28T08:27:37;2.40;99.90
2967;DHT22;1493;51.496;7.210;2023-01-28T08:30:05;2.40;99.90
2967;DHT22;1493;51.496;7.210;2023-01-28T08:32:32;2.60;99.90
2967;DHT22;1493;51.496;7.210;2023-01-28T08:34:59;2.60;99.90
2967;DHT22;1493;51.496;7.210;2023-01-28T08:37:25;2.50;99.90
2967;DHT22;1493;51.496;7.210;2023-01-28T08:39:54;2.50;99.90
2967;DHT22;1493;51.496;7.210;2023-01-28T08:42:20;2.70;99.90
2967;DHT22;1493;51.496;7.210;2023-01-28T08:44:47;2.60;99.90
2967;DHT22;1493;51.496;7.210;2023-01-28T08:47:14;2.60;99.90
2967;DHT22;1493;51.496;7.210;2023-01-28T08:49:41;2.70;99.90
2967;DHT22;1493;51.496;7.210;2023-01-28T08:52:08;2.70;99.90
2967;DHT22;1493;51.496;7.210;2023-01-28T08:54:35;2.60;99.90
2967;DHT22;1493;51.496;7.210;2023-01-28T08:57:03;2.70;99.90
2967;DHT22;1493;51.496;7.210;2023-01-28T08:59:30;2.70;99.90
2967;DHT22;1493;51.496;7.210;2023-01-28T09:01:57;2.70;99.90
2967;DHT22;1493;51.496;7.210;2023-01-28T09:04:24;2.70;99.90
2967;DHT22;1493;51.496;7.210;2023-01-28T09:06:50;2.60;99.90
2967;DHT22;1493;51.496;7.210;2023-01-28T09:09:17;2.70;99.90
2967;DHT22;1493;51.496;7.210;2023-01-28T09:11:44;2.40;99.90
2967;DHT22;1493;51.496;7.210;2023-01-28T09:14:12;2.40;99.90
2967;DHT22;1493;51.496;7.210;2023-01-28T09:16:39;2.40;99.90
2967;DHT22;1493;51.496;7.210;2023-01-28T09:19:06;2.50;99.90
2967;DHT22;1493;51.496;7.210;2023-01-28T09:21:32;2.40;99.90
2967;DHT22;1493;51.496;7.210;2023-01-28T09:23:59;2.50;99.90
2967;DHT22;1493;51.496;7.210;2023-01-28T09:26:26;2.70;99.90
2967;DHT22;1493;51.496;7.210;2023-01-28T09:28:58;2.60;99.90
2967;DHT22;1493;51.496;7.210;2023-01-28T09:31:27;2.50;99.90
2967;DHT22;1493;51.496;7.210;2023-01-28T09:33:54;2.70;99.90
2967;DHT22;1493;51.496;7.210;2023-01-28T09:36:22;2.80;99.90
2967;DHT22;1493;51.496;7.210;2023-01-28T09:38:49;3.10;99.90
2967;DHT22;1493;51.496;7.210;2023-01-28T09:41:24;3.00;99.90
2967;DHT22;1493;51.496;7.210;2023-01-28T09:44:07;3.00;99.90
2967;DHT22;1493;51.496;7.210;2023-01-28T09:46:39;3.00;99.90
2967;DHT22;1493;51.496;7.210;2023-01-28T09:49:18;3.10;99.90
2967;DHT22;1493;51.496;7.210;2023-01-28T09:51:49;3.30;99.90
2967;DHT22;1493;51.496;7.210;2023-01-28T09:54:28;3.20;99.90
2967;DHT22;1493;51.496;7.210;2023-01-28T09:57:01;3.20;99.90
2967;DHT22;1493;51.496;7.210;2023-01-28T09:59:32;3.00;99.90
2967;DHT22;1493;51.496;7.210;2023-01-28T10:02:05;3.00;99.90
2967;DHT22;1493;51.496;7.210;2023-01-28T10:04:50;3.10;99.90
2967;DHT22;1493;51.496;7.210;2023-01-28T10:07:28;3.30;99.90
2967;DHT22;1493;51.496;7.210;2023-01-28T10:10:02;3.40;99.90
2967;DHT22;1493;51.496;7.210;2023-01-28T10:12:48;3.60;99.90
2967;DHT22;1493;51.496;7.210;2023-01-28T10:18:10;3.70;99.90
2967;DHT22;1493;51.496;7.210;2023-01-28T10:20:42;3.70;99.90
2967;DHT22;1493;51.496;7.210;2023-01-28T10:23:15;3.60;99.90
2967;DHT22;1493;51.496;7.210;2023-01-28T10:25:45;3.40;99.90
2967;DHT22;1493;51.496;7.210;2023-01-28T10:28:18;3.50;99.90
2967;DHT22;1493;51.496;7.210;2023-01-28T10:30:46;3.50;99.90
2967;DHT22;1493;51.496;7.210;2023-01-28T10:33:19;3.30;99.90
2967;DHT22;1493;51.496;7.210;2023-01-28T10:35:46;3.50;99.90
2967;DHT22;1493;51.496;7.210;2023-01-28T10:38:15;3.60;99.90
2967;DHT22;1493;51.496;7.210;2023-01-28T10:40:43;3.60;99.90
2967;DHT22;1493;51.496;7.210;2023-01-28T10:43:13;3.60;99.90
2967;DHT22;1493;51.496;7.210;2023-01-28T10:45:44;3.40;99.90
2967;DHT22;1493;51.496;7.210;2023-01-28T10:48:20;3.60;99.90
2967;DHT22;1493;51.496;7.210;2023-01-28T10:50:50;3.60;99.90
2967;DHT22;1493;51.496;7.210;2023-01-28T10:53:17;3.70;99.90
2967;DHT22;1493;51.496;7.210;2023-01-28T10:55:49;3.60;99.90
2967;DHT22;1493;51.496;7.210;2023-01-28T10:58:18;3.40;99.90
2967;DHT22;1493;51.496;7.210;2023-01-28T11:00:51;3.30;99.90
2967;DHT22;1493;51.496;7.210;2023-01-28T11:03:20;3.20;99.90
2967;DHT22;1493;51.496;7.210;2023-01-28T11:05:55;3.20;99.90
2967;DHT22;1493;51.496;7.210;2023-01-28T11:08:24;3.20;99.90
2967;DHT22;1493;51.496;7.210;2023-01-28T11:10:52;3.00;99.90
2967;DHT22;1493;51.496;7.210;2023-01-28T11:13:21;3.00;99.90
2967;DHT22;1493;51.496;7.210;2023-01-28T11:15:49;3.00;99.90
2967;DHT22;1493;51.496;7.210;2023-01-28T11:18:18;3.00;99.90
2967;DHT22;1493;51.496;7.210;2023-01-28T11:20:52;3.10;99.90
2967;DHT22;1493;51.496;7.210;2023-01-28T11:23:23;3.20;99.90
2967;DHT22;1493;51.496;7.210;2023-01-28T11:26:01;3.20;99.90
2967;DHT22;1493;51.496;7.210;2023-01-28T11:28:29;3.20;99.90
2967;DHT22;1493;51.496;7.210;2023-01-28T11:30:57;3.00;99.90
2967;DHT22;1493;51.496;7.210;2023-01-28T11:33:30;3.10;99.90
2967;DHT22;1493;51.496;7.210;2023-01-28T11:36:06;3.20;99.90
2967;DHT22;1493;51.496;7.210;2023-01-28T11:38:33;3.30;99.90
2967;DHT22;1493;51.496;7.210;2023-01-28T11:41:00;3.40;99.90
2967;DHT22;1493;51.496;7.210;2023-01-28T11:43:29;3.20;99.90
2967;DHT22;1493;51.496;7.210;2023-01-28T11:46:03;3.30;99.90
2967;DHT22;1493;51.496;7.210;2023-01-28T11:48:40;3.50;99.90
2967;DHT22;1493;51.496;7.210;2023-01-28T11:51:20;3.60;99.90
2967;DHT22;1493;51.496;7.210;2023-01-28T11:53:56;3.60;99.90
2967;DHT22;1493;51.496;7.210;2023-01-28T11:56:50;3.70;99.90
2967;DHT22;1493;51.496;7.210;2023-01-28T11:59:31;3.80;99.90
2967;DHT22;1493;51.496;7.210;2023-01-28T12:02:03;3.80;99.90
2967;DHT22;1493;51.496;7.210;2023-01-28T12:04:47;3.70;99.90
2967;DHT22;1493;51.496;7.210;2023-01-28T12:07:32;3.80;99.90
2967;DHT22;1493;51.496;7.210;2023-01-28T12:10:11;3.80;99.90
2967;DHT22;1493;51.496;7.210;2023-01-28T12:12:55;3.70;99.90
2967;DHT22;1493;51.496;7.210;2023-01-28T12:15:38;3.70;99.90
2967;DHT22;1493;51.496;7.210;2023-01-28T12:18:21;3.90;99.90
2967;DHT22;1493;51.496;7.210;2023-01-28T12:20:55;4.00;99.90
2967;DHT22;1493;51.496;7.210;2023-01-28T12:23:32;4.40;99.90
2967;DHT22;1493;51.496;7.210;2023-01-28T12:26:07;4.70;99.90
2967;DHT22;1493;51.496;7.210;2023-01-28T12:28:51;4.80;99.90
2967;DHT22;1493;51.496;7.210;2023-01-28T12:31:49;5.20;99.90
2967;DHT22;1493;51.496;7.210;2023-01-28T12:34:36;5.40;99.90
2967;DHT22;1493;51.496;7.210;2023-01-28T12:37:11;6.00;99.90
2967;DHT22;1493;51.496;7.210;2023-01-28T12:39:51;6.10;99.90
2967;DHT22;1493;51.496;7.210;2023-01-28T12:42:31;6.20;99.90
2967;DHT22;1493;51.496;7.210;2023-01-28T12:45:10;6.20;99.90
2967;DHT22;1493;51.496;7.210;2023-01-28T12:47:38;5.90;99.90
2967;DHT22;1493;51.496;7.210;2023-01-28T12:50:13;5.80;99.90
2967;DHT22;1493;51.496;7.210;2023-01-28T12:52:45;5.70;99.90
2967;DHT22;1493;51.496;7.210;2023-01-28T12:55:18;5.70;99.90
2967;DHT22;1493;51.496;7.210;2023-01-28T12:57:46;5.70;99.90
2967;DHT22;1493;51.496;7.210;2023-01-28T13:00:22;6.60;99.90
2967;DHT22;1493;51.496;7.210;2023-01-28T13:02:57;7.00;99.90
2967;DHT22;1493;51.496;7.210;2023-01-28T13:05:31;7.80;99.90
2967;DHT22;1493;51.496;7.210;2023-01-28T13:08:02;8.70;94.10
2967;DHT22;1493;51.496;7.210;2023-01-28T13:10:36;8.20;92.70
2967;DHT22;1493;51.496;7.210;2023-01-28T13:13:04;8.10;93.90
2967;DHT22;1493;51.496;7.210;2023-01-28T13:15:37;7.70;94.40
2967;DHT22;1493;51.496;7.210;2023-01-28T13:18:05;7.20;95.10
2967;DHT22;1493;51.496;7.210;2023-01-28T13:20:38;6.90;97.40
2967;DHT22;1493;51.496;7.210;2023-01-28T13:23:21;6.70;99.90
2967;DHT22;1493;51.496;7.210;2023-01-28T13:25:51;5.70;99.90
2967;DHT22;1493;51.496;7.210;2023-01-28T13:28:26;5.60;99.90
2967;DHT22;1493;51.496;7.210;2023-01-28T13:31:00;5.40;99.90
2967;DHT22;1493;51.496;7.210;2023-01-28T13:33:30;5.50;99.90
2967;DHT22;1493;51.496;7.210;2023-01-28T13:36:02;5.50;99.90
2967;DHT22;1493;51.496;7.210;2023-01-28T13:38:32;5.60;99.90
2967;DHT22;1493;51.496;7.210;2023-01-28T13:41:01;5.30;99.90
2967;DHT22;1493;51.496;7.210;2023-01-28T13:43:40;5.30;99.90
2967;DHT22;1493;51.496;7.210;2023-01-28T13:46:09;5.30;99.90
2967;DHT22;1493;51.496;7.210;2023-01-28T13:48:41;4.80;99.90
2967;DHT22;1493;51.496;7.210;2023-01-28T13:51:17;4.80;99.90
2967;DHT22;1493;51.496;7.210;2023-01-28T13:53:47;4.80;99.90
2967;DHT22;1493;51.496;7.210;2023-01-28T13:56:20;5.40;99.90
2967;DHT22;1493;51.496;7.210;2023-01-28T13:59:20;5.30;99.90
2967;DHT22;1493;51.496;7.210;2023-01-28T14:08:24;6.00;99.90
2967;DHT22;1493;51.496;7.210;2023-01-28T14:11:08;6.10;99.90
2967;DHT22;1493;51.496;7.210;2023-01-28T14:14:13;5.70;99.90
2967;DHT22;1493;51.496;7.210;2023-01-28T14:16:49;5.60;99.90
2967;DHT22;1493;51.496;7.210;2023-01-28T14:19:25;5.60;99.90
2967;DHT22;1493;51.496;7.210;2023-01-28T14:21:52;5.20;99.90
2967;DHT22;1493;51.496;7.210;2023-01-28T14:24:19;5.00;99.90
2967;DHT22;1493;51.496;7.210;2023-01-28T14:26:52;4.70;99.90
2967;DHT22;1493;51.496;7.210;2023-01-28T14:29:32;4.30;99.90
2967;DHT22;1493;51.496;7.210;2023-01-28T14:32:03;4.20;99.90
2967;DHT22;1493;51.496;7.210;2023-01-28T14:34:33;3.90;99.90
2967;DHT22;1493;51.496;7.210;2023-01-28T14:37:03;3.80;99.90
2967;DHT22;1493;51.496;7.210;2023-01-28T14:39:37;3.70;99.90
2967;DHT22;1493;51.496;7.210;2023-01-28T14:42:13;3.70;99.90
2967;DHT22;1493;51.496;7.210;2023-01-28T14:44:43;3.50;99.90
2967;DHT22;1493;51.496;7.210;2023-01-28T14:47:35;3.30;99.90
2967;DHT22;1493;51.496;7.210;2023-01-28T14:50:16;3.20;99.90
2967;DHT22;1493;51.496;7.210;2023-01-28T14:52:55;3.10;99.90
2967;DHT22;1493;51.496;7.210;2023-01-28T14:55:34;3.10;99.90
2967;DHT22;1493;51.496;7.210;2023-01-28T14:58:11;3.10;99.90
2967;DHT22;1493;51.496;7.210;2023-01-28T15:00:52;3.00;99.90
2967;DHT22;1493;51.496;7.210;2023-01-28T15:03:20;2.90;99.90
2967;DHT22;1493;51.496;7.210;2023-01-28T15:05:47;2.80;99.90
2967;DHT22;1493;51.496;7.210;2023-01-28T15:08:19;2.70;99.90
2967;DHT22;1493;51.496;7.210;2023-01-28T15:10:47;2.70;99.90
2967;DHT22;1493;51.496;7.210;2023-01-28T15:13:20;2.60;99.90
2967;DHT22;1493;51.496;7.210;2023-01-28T15:15:51;2.60;99.90
2967;DHT22;1493;51.496;7.210;2023-01-28T15:18:28;2.60;99.90
2967;DHT22;1493;51.496;7.210;2023-01-28T15:20:56;2.60;99.90
2967;DHT22;1493;51.496;7.210;2023-01-28T15:23:26;2.50;99.90
2967;DHT22;1493;51.496;7.210;2023-01-28T15:25:53;2.40;99.90
2967;DHT22;1493;51.496;7.210;2023-01-28T15:28:24;2.40;99.90
2967;DHT22;1493;51.496;7.210;2023-01-28T15:30:54;2.40;99.90
2967;DHT22;1493;51.496;7.210;2023-01-28T15:33:21;2.20;99.90
2967;DHT22;1493;51.496;7.210;2023-01-28T15:35:50;2.10;99.90
2967;DHT22;1493;51.496;7.210;2023-01-28T15:38:17;2.10;99.90
2967;DHT22;1493;51.496;7.210;2023-01-28T15:40:46;2.10;99.90
2967;DHT22;1493;51.496;7.210;2023-01-28T15:43:22;2.10;99.90
2967;DHT22;1493;51.496;7.210;2023-01-28T15:45:52;1.90;99.90
2967;DHT22;1493;51.496;7.210;2023-01-28T15:48:22;2.00;99.90
2967;DHT22;1493;51.496;7.210;2023-01-28T15:50:58;2.00;99.90
2967;DHT22;1493;51.496;7.210;2023-01-28T15:53:28;2.00;99.90
2967;DHT22;1493;51.496;7.210;2023-01-28T15:56:04;2.10;99.90
2967;DHT22;1493;51.496;7.210;2023-01-28T15:58:31;2.10;99.90
2967;DHT22;1493;51.496;7.210;2023-01-28T16:01:13;2.00;99.90
2967;DHT22;1493;51.496;7.210;2023-01-28T16:03:43;2.00;99.90
2967;DHT22;1493;51.496;7.210;2023-01-28T16:06:13;1.90;99.90
2967;DHT22;1493;51.496;7.210;2023-01-28T16:08:46;1.80;99.90
2967;DHT22;1493;51.496;7.210;2023-01-28T16:11:21;1.70;99.90
2967;DHT22;1493;51.496;7.210;2023-01-28T16:13:49;1.60;99.90
2967;DHT22;1493;51.496;7.210;2023-01-28T16:16:28;1.60;99.90
2967;DHT22;1493;51.496;7.210;2023-01-28T16:18:56;1.50;99.90
2967;DHT22;1493;51.496;7.210;2023-01-28T16:21:25;1.40;99.90
2967;DHT22;1493;51.496;7.210;2023-01-28T16:23:57;1.30;99.90
2967;DHT22;1493;51.496;7.210;2023-01-28T16:26:26;1.20;99.90
2967;DHT22;1493;51.496;7.210;2023-01-28T16:28:53;1.20;99.90
2967;DHT22;1493;51.496;7.210;2023-01-28T16:31:20;1.10;99.90
2967;DHT22;1493;51.496;7.210;2023-01-28T16:33:46;1.00;99.90
2967;DHT22;1493;51.496;7.210;2023-01-28T16:36:16;1.00;99.90
2967;DHT22;1493;51.496;7.210;2023-01-28T16:38:44;0.90;99.90
2967;DHT22;1493;51.496;7.210;2023-01-28T16:41:12;0.90;99.90
2967;DHT22;1493;51.496;7.210;2023-01-28T16:43:39;0.90;99.90
2967;DHT22;1493;51.496;7.210;2023-01-28T16:46:10;0.80;99.90
2967;DHT22;1493;51.496;7.210;2023-01-28T16:48:37;0.80;99.90
2967;DHT22;1493;51.496;7.210;2023-01-28T16:51:04;0.70;99.90
2967;DHT22;1493;51.496;7.210;2023-01-28T16:53:33;0.70;99.90